Time;durP1;ratioP1;P1;durP2;ratioP2;P2;SDS_P1;SDS_P2;PMS_P1;PMS_P2;Temp;Humidity;BMP_temperature;BMP_pressure;BME280_temperature;BME280_humidity;BME280_pressure;Samples;Min_cycle;Max_cycle;Signal;HPM_P1;HPM_P2
2022/09/28 00:01:57;;;;;;;7.25;2.97;;;;;;;28.05;35.84;100522.34;5026399;28;20048;-80
2022/09/28 00:04:26;;;;;;;5.68;2.45;;;;;;;28.05;36.27;100527.66;5026512;28;20045;-76
2022/09/28 00:06:55;;;;;;;9.52;2.60;;;;;;;28.07;36.10;100526.63;5023777;28;20443;-76
2022/09/28 00:09:24;;;;;;;5.60;2.33;;;;;;;28.01;36.30;100528.72;5022212;28;20057;-75
2022/09/28 00:11:56;;;;;;;6.53;2.50;;;;;;;27.92;36.21;100522.91;5024261;28;20045;-74
2022/09/28 00:14:25;;;;;;;9.05;3.17;;;;;;;27.90;35.68;100529.22;5016012;28;20061;-74
2022/09/28 00:16:53;;;;;;;7.47;3.63;;;;;;;27.86;35.78;100530.31;5014486;28;20607;-75
2022/09/28 00:19:26;;;;;;;6.55;3.80;;;;;;;27.78;36.08;100526.16;5024584;28;20051;-75
2022/09/28 00:21:58;;;;;;;7.60;4.35;;;;;;;27.62;36.33;100522.47;5025430;28;20045;-75
2022/09/28 00:24:27;;;;;;;8.40;5.45;;;;;;;27.54;36.20;100527.28;4991510;28;20045;-75
2022/09/28 00:27:00;;;;;;;11.90;5.57;;;;;;;27.44;36.40;100533.91;5016565;28;20042;-72
2022/09/28 00:29:30;;;;;;;9.75;5.28;;;;;;;27.34;36.55;100528.16;5020565;28;20041;-74
2022/09/28 00:32:07;;;;;;;6.63;4.50;;;;;;;27.25;36.46;100532.06;5019017;28;20046;-74
2022/09/28 00:34:38;;;;;;;14.38;4.10;;;;;;;27.13;36.97;100528.13;5027538;28;20498;-75
2022/09/28 00:37:09;;;;;;;6.35;4.13;;;;;;;27.03;37.20;100529.47;5026330;28;20144;-75
2022/09/28 00:39:40;;;;;;;5.63;3.33;;;;;;;26.93;37.37;100525.44;5008787;28;20049;-73
2022/09/28 00:42:15;;;;;;;4.80;3.33;;;;;;;26.85;36.73;100531.09;5024535;28;20042;-73
2022/09/28 00:44:47;;;;;;;4.57;2.50;;;;;;;26.74;37.08;100515.59;5021518;28;20066;-75
2022/09/28 00:47:31;;;;;;;6.00;2.72;;;;;;;26.64;37.29;100519.59;5025333;28;20060;-75
2022/09/28 00:50:04;;;;;;;6.13;2.95;;;;;;;26.51;37.56;100528.94;5024690;28;20048;-75
2022/09/28 00:52:40;;;;;;;5.45;2.90;;;;;;;26.41;37.96;100524.91;5025375;28;20049;-75
2022/09/28 00:55:12;;;;;;;4.85;2.75;;;;;;;26.33;38.11;100531.38;5020739;28;20045;-74
2022/09/28 00:57:47;;;;;;;4.40;2.85;;;;;;;26.23;38.03;100523.88;5017132;28;20062;-73
2022/09/28 01:00:16;;;;;;;4.88;2.50;;;;;;;26.10;38.06;100526.13;5024337;28;20057;-75
2022/09/28 01:02:46;;;;;;;7.75;2.85;;;;;;;25.98;38.15;100524.81;5026501;28;20052;-73
2022/09/28 01:05:15;;;;;;;5.22;2.55;;;;;;;25.89;38.58;100528.66;5019568;28;20643;-73
2022/09/28 01:07:45;;;;;;;9.25;2.97;;;;;;;25.77;38.96;100529.09;5024788;28;20057;-72
2022/09/28 01:10:14;;;;;;;5.93;2.63;;;;;;;25.68;39.34;100521.50;5016167;28;20057;-74
2022/09/28 01:12:45;;;;;;;4.53;2.88;;;;;;;25.64;39.01;100531.31;5023378;28;20057;-75
2022/09/28 01:15:14;;;;;;;3.58;2.13;;;;;;;25.60;39.30;100527.06;5026618;28;20049;-76
2022/09/28 01:18:06;;;;;;;6.45;2.45;;;;;;;25.45;39.55;100527.63;5022057;28;20077;-74
2022/09/28 01:20:57;;;;;;;4.85;2.20;;;;;;;25.36;39.95;100530.56;5022326;28;20045;-75
2022/09/28 01:23:53;;;;;;;4.37;2.03;;;;;;;25.29;39.69;100536.09;5026496;28;20564;-77
2022/09/28 01:26:49;;;;;;;2.92;2.00;;;;;;;25.21;40.09;100527.56;5015018;28;20049;-74
2022/09/28 01:29:26;;;;;;;3.17;1.83;;;;;;;25.12;40.36;100533.13;5022548;28;20049;-75
2022/09/28 01:32:01;;;;;;;2.80;1.70;;;;;;;25.06;40.71;100536.88;5026909;28;20126;-72
2022/09/28 01:34:36;;;;;;;5.97;1.70;;;;;;;25.00;40.75;100544.16;5018584;28;20470;-70
2022/09/28 01:37:08;;;;;;;6.38;1.95;;;;;;;24.89;41.00;100541.84;5027974;28;20053;-72
2022/09/28 01:39:40;;;;;;;7.88;1.80;;;;;;;24.80;41.96;100543.00;5025559;28;20063;-73
2022/09/28 01:42:16;;;;;;;2.58;1.70;;;;;;;24.73;41.58;100546.78;5022184;28;20050;-70
2022/09/28 01:44:48;;;;;;;5.05;1.63;;;;;;;24.60;42.13;100550.72;5028869;28;20053;-71
2022/09/28 01:47:21;;;;;;;5.63;1.88;;;;;;;24.44;42.70;100551.19;5024126;28;20050;-70
2022/09/28 01:49:55;;;;;;;5.65;1.75;;;;;;;24.29;42.91;100554.31;5020266;28;20057;-69
2022/09/28 01:52:30;;;;;;;3.72;1.70;;;;;;;24.15;43.15;100556.53;5019274;28;20049;-69
2022/09/28 01:55:03;;;;;;;5.00;1.42;;;;;;;24.03;43.60;100565.69;5023822;28;20677;-69
2022/09/28 01:57:39;;;;;;;10.68;1.63;;;;;;;23.87;43.50;100573.19;5024431;28;20061;-70
2022/09/28 02:00:11;;;;;;;5.05;1.85;;;;;;;23.75;44.46;100579.66;5027931;28;20492;-70
2022/09/28 02:02:43;;;;;;;5.45;1.60;;;;;;;23.60;44.33;100580.91;5028425;28;20050;-70
2022/09/28 02:05:17;;;;;;;6.72;2.33;;;;;;;23.42;45.00;100584.91;5027951;28;20049;-69
2022/09/28 02:07:52;;;;;;;5.90;1.65;;;;;;;23.26;45.22;100582.72;5012601;28;20050;-70
2022/09/28 02:10:25;;;;;;;5.10;1.45;;;;;;;23.08;45.33;100574.34;5008240;28;20046;-71
2022/09/28 02:13:02;;;;;;;9.52;1.63;;;;;;;22.95;45.46;100594.00;5002600;28;20046;-69
2022/09/28 02:15:37;;;;;;;6.45;1.60;;;;;;;22.83;45.85;100594.31;5000105;28;20053;-70
2022/09/28 02:18:06;;;;;;;3.35;1.60;;;;;;;22.70;46.67;100598.97;5002294;28;20122;-71
2022/09/28 02:20:37;;;;;;;4.53;1.70;;;;;;;22.58;46.89;100594.88;5004926;28;20060;-70
2022/09/28 02:23:06;;;;;;;2.88;1.25;;;;;;;22.45;46.56;100594.28;5003733;28;20142;-69
2022/09/28 02:25:40;;;;;;;5.38;1.40;;;;;;;22.38;47.24;100606.72;5009391;28;20059;-70
2022/09/28 02:28:13;;;;;;;6.32;1.60;;;;;;;22.29;47.11;100609.56;5004570;28;20050;-69
2022/09/28 02:30:43;;;;;;;4.85;1.42;;;;;;;22.17;47.10;100615.03;5003039;28;20073;-68
2022/09/28 02:33:16;;;;;;;6.88;1.45;;;;;;;22.05;47.02;100615.31;5000947;28;20073;-68
2022/09/28 02:35:45;;;;;;;9.02;1.25;;;;;;;21.91;47.48;100619.06;5006861;28;20624;-68
2022/09/28 02:38:15;;;;;;;8.43;1.50;;;;;;;21.79;47.88;100623.72;5005066;28;20061;-67
2022/09/28 02:40:51;;;;;;;2.67;1.20;;;;;;;21.64;48.32;100631.00;5004833;28;20042;-68
2022/09/28 02:43:26;;;;;;;6.13;1.40;;;;;;;21.54;48.07;100638.19;5005131;28;20052;-68
2022/09/28 02:46:06;;;;;;;6.22;1.30;;;;;;;21.38;48.64;100633.19;5001154;28;20455;-69
2022/09/28 02:48:52;;;;;;;6.80;2.13;;;;;;;21.25;48.94;100640.41;5000894;28;20064;-68
2022/09/28 02:51:28;;;;;;;3.00;1.27;;;;;;;21.10;49.61;100649.44;4997271;28;20057;-69
2022/09/28 02:54:14;;;;;;;2.25;1.10;;;;;;;20.89;49.61;100650.59;5001220;28;20093;-71
2022/09/28 02:57:02;;;;;;;5.70;1.58;;;;;;;20.74;50.19;100650.84;5003447;28;20480;-71
2022/09/28 02:59:53;;;;;;;6.55;1.42;;;;;;;20.57;50.50;100659.84;4998652;28;20053;-73
2022/09/28 03:02:29;;;;;;;4.65;1.38;;;;;;;20.42;51.05;100660.00;5004774;28;20724;-70
2022/09/28 03:05:11;;;;;;;8.18;1.42;;;;;;;20.26;51.51;100669.81;4996894;28;20480;-71
2022/09/28 03:07:46;;;;;;;4.30;1.10;;;;;;;20.02;51.91;100665.69;5022118;28;20061;-71
2022/09/28 03:10:20;;;;;;;3.55;0.93;;;;;;;19.92;52.30;100669.31;5022855;28;20046;-70
2022/09/28 03:12:50;;;;;;;2.63;1.15;;;;;;;19.80;52.09;100668.56;5015178;28;20045;-72
2022/09/28 03:15:25;;;;;;;3.25;1.30;;;;;;;19.72;52.90;100673.00;5017935;28;20484;-69
2022/09/28 03:17:53;;;;;;;1.10;0.85;;;;;;;19.61;53.38;100683.59;5021334;28;20072;-73
2022/09/28 03:20:22;;;;;;;1.88;1.23;;;;;;;19.45;53.66;100669.72;5022500;28;20714;-72
2022/09/28 03:22:51;;;;;;;2.70;1.17;;;;;;;19.40;53.91;100682.03;5022894;28;20663;-71
2022/09/28 03:25:20;;;;;;;2.58;1.20;;;;;;;19.34;53.99;100679.44;5025470;28;20042;-71
2022/09/28 03:27:49;;;;;;;2.65;1.13;;;;;;;19.30;53.80;100689.97;5026299;28;20048;-70
2022/09/28 03:30:17;;;;;;;2.42;1.08;;;;;;;19.24;54.33;100689.13;5019388;28;20054;-71
2022/09/28 03:32:48;;;;;;;1.60;0.77;;;;;;;19.08;54.92;100692.75;5025105;28;20515;-71
2022/09/28 03:35:17;;;;;;;2.97;1.13;;;;;;;19.05;55.46;100700.63;5029664;28;20103;-71
2022/09/28 03:37:46;;;;;;;1.27;0.80;;;;;;;18.97;55.72;100700.69;5022565;28;20053;-70
2022/09/28 03:40:14;;;;;;;2.35;1.25;;;;;;;18.91;56.51;100702.47;5021486;28;20053;-71
2022/09/28 03:42:44;;;;;;;2.17;1.00;;;;;;;18.75;56.19;100704.25;5021939;28;20053;-74
2022/09/28 03:45:13;;;;;;;2.17;0.98;;;;;;;18.68;56.38;100710.41;5023133;28;20061;-71
2022/09/28 03:47:48;;;;;;;4.38;0.85;;;;;;;18.62;56.34;100721.78;5026679;28;20045;-71
2022/09/28 03:50:17;;;;;;;3.30;1.13;;;;;;;18.60;56.21;100726.19;5015510;28;20128;-72
2022/09/28 03:52:46;;;;;;;3.72;1.10;;;;;;;18.54;57.05;100719.19;5025533;28;20049;-75
2022/09/28 03:55:15;;;;;;;5.07;1.13;;;;;;;18.47;57.17;100727.97;5021643;28;20458;-70
2022/09/28 03:57:44;;;;;;;3.20;1.15;;;;;;;18.38;57.57;100733.22;5023705;28;20061;-72
2022/09/28 04:00:13;;;;;;;2.88;0.82;;;;;;;18.34;57.72;100731.50;5026478;28;20057;-71
2022/09/28 04:02:42;;;;;;;2.58;1.15;;;;;;;18.29;58.00;100738.50;5027088;28;20128;-71
2022/09/28 04:05:12;;;;;;;2.35;0.93;;;;;;;18.21;57.95;100742.00;5022848;28;20807;-72
2022/09/28 04:07:41;;;;;;;6.22;1.00;;;;;;;18.19;58.23;100743.75;5024788;28;20514;-72
2022/09/28 04:10:10;;;;;;;1.70;0.90;;;;;;;18.15;58.34;100749.88;5027758;28;20434;-71
2022/09/28 04:12:39;;;;;;;2.05;1.02;;;;;;;18.08;58.40;100756.00;5008220;28;20053;-72
2022/09/28 04:15:08;;;;;;;2.03;0.75;;;;;;;18.01;58.28;100759.50;5022288;28;20049;-74
2022/09/28 04:17:37;;;;;;;3.83;1.05;;;;;;;17.91;59.02;100762.97;5023430;28;20045;-74
2022/09/28 04:20:07;;;;;;;3.47;0.95;;;;;;;17.83;58.91;100767.34;5025095;28;20056;-72
2022/09/28 04:22:38;;;;;;;2.08;1.00;;;;;;;17.75;59.43;100768.19;5015964;28;20073;-72
2022/09/28 04:25:07;;;;;;;1.30;0.90;;;;;;;17.57;60.14;100773.41;5024622;28;20045;-70
2022/09/28 04:30:21;;;;;;;1.90;0.82;;;;;;;17.43;60.95;100788.19;5017213;28;20490;-72
2022/09/28 04:32:50;;;;;;;2.28;0.95;;;;;;;17.35;61.43;100789.06;5023268;28;20538;-74
2022/09/28 04:35:19;;;;;;;1.25;0.70;;;;;;;17.29;61.42;100788.16;5026464;28;20053;-73
2022/09/28 04:37:49;;;;;;;1.80;0.80;;;;;;;17.24;61.30;100800.38;5026393;28;20107;-72
2022/09/28 04:40:17;;;;;;;5.03;1.08;;;;;;;17.21;61.55;100788.16;5026819;28;20045;-72
2022/09/28 04:42:53;;;;;;;1.02;0.77;;;;;;;17.20;61.52;100789.00;5026832;28;20061;-72
2022/09/28 04:45:21;;;;;;;3.70;1.10;;;;;;;17.19;61.42;100786.41;5026579;28;20054;-72
2022/09/28 04:47:50;;;;;;;2.72;1.00;;;;;;;17.14;62.16;100799.47;5028516;28;20049;-72
2022/09/28 04:50:19;;;;;;;2.03;1.00;;;;;;;17.12;62.36;100803.81;5026328;28;20053;-71
2022/09/28 04:52:49;;;;;;;1.58;0.82;;;;;;;17.11;62.29;100794.22;5021026;28;20070;-72
2022/09/28 04:55:19;;;;;;;3.28;1.10;;;;;;;17.08;62.65;100784.63;5024304;28;20518;-72
2022/09/28 04:57:48;;;;;;;7.38;1.30;;;;;;;17.06;62.08;100785.50;5027045;28;20049;-71
2022/09/28 05:00:17;;;;;;;2.67;0.90;;;;;;;17.03;62.82;100783.75;5030683;28;20045;-71
2022/09/28 05:02:45;;;;;;;0.75;0.70;;;;;;;16.99;62.52;100784.59;5038366;28;20049;-72
2022/09/28 05:05:14;;;;;;;2.28;1.35;;;;;;;16.93;63.12;100795.91;5026526;28;20049;-71
2022/09/28 05:07:44;;;;;;;3.20;0.70;;;;;;;16.90;62.90;100800.25;5025155;28;20049;-72
2022/09/28 05:10:14;;;;;;;1.38;0.90;;;;;;;16.88;63.51;100797.66;5026397;28;20077;-71
2022/09/28 05:12:43;;;;;;;3.38;1.08;;;;;;;16.85;63.41;100802.84;5023464;28;20045;-72
2022/09/28 05:15:12;;;;;;;4.78;1.20;;;;;;;16.84;63.46;100801.09;5030331;28;20415;-71
2022/09/28 05:17:40;;;;;;;2.35;0.85;;;;;;;16.84;63.04;100806.34;5027553;28;20062;-71
2022/09/28 05:20:10;;;;;;;1.67;0.70;;;;;;;16.80;63.63;100815.00;5025897;28;20045;-71
2022/09/28 05:22:39;;;;;;;3.60;0.80;;;;;;;16.77;63.51;100825.44;5026652;28;20133;-72
2022/09/28 05:25:08;;;;;;;0.93;0.60;;;;;;;16.77;63.69;100830.66;5022347;28;20042;-70
2022/09/28 05:27:38;;;;;;;2.05;0.80;;;;;;;16.73;63.91;100826.28;5025792;28;20590;-71
2022/09/28 05:30:09;;;;;;;2.75;0.70;;;;;;;16.69;64.50;100825.38;5019716;28;20116;-70
2022/09/28 05:32:41;;;;;;;1.10;0.80;;;;;;;16.66;64.60;100822.75;5029662;28;20112;-70
2022/09/28 05:35:11;;;;;;;1.42;0.90;;;;;;;16.66;64.81;100824.50;5029193;28;20774;-72
2022/09/28 05:37:40;;;;;;;3.03;0.70;;;;;;;16.62;64.75;100830.56;5022224;28;20151;-73
2022/09/28 05:40:09;;;;;;;4.53;0.90;;;;;;;16.55;64.97;100822.69;5021808;28;20072;-72
2022/09/28 05:42:39;;;;;;;1.27;0.90;;;;;;;16.49;65.68;100830.50;5021802;28;20423;-71
2022/09/28 05:45:09;;;;;;;1.20;0.70;;;;;;;16.41;65.75;100832.16;5024189;28;20057;-70
2022/09/28 05:47:39;;;;;;;0.60;0.47;;;;;;;16.36;66.53;100830.41;5019775;28;20053;-71
2022/09/28 05:50:10;;;;;;;0.93;0.70;;;;;;;16.32;65.91;100837.34;5025843;28;20480;-71
2022/09/28 05:52:39;;;;;;;5.22;0.85;;;;;;;16.27;65.80;100842.53;5030207;28;20509;-72
2022/09/28 05:55:09;;;;;;;1.33;0.75;;;;;;;16.26;66.08;100840.78;5023171;28;20050;-73
2022/09/28 05:57:39;;;;;;;1.83;0.60;;;;;;;16.25;66.53;100839.03;5019147;28;20054;-72
2022/09/28 06:00:08;;;;;;;1.35;0.75;;;;;;;16.22;65.78;100833.78;5022137;28;20045;-71
2022/09/28 06:02:37;;;;;;;2.05;0.82;;;;;;;16.21;65.90;100833.75;5033737;28;20045;-71
2022/09/28 06:05:06;;;;;;;1.38;0.43;;;;;;;16.18;66.76;100833.75;5026573;28;20068;-71
2022/09/28 06:07:35;;;;;;;0.93;0.73;;;;;;;16.19;66.05;100835.47;5027289;28;20108;-70
2022/09/28 06:10:03;;;;;;;2.70;0.60;;;;;;;16.16;66.87;100833.72;5025570;28;20120;-69
2022/09/28 06:12:34;;;;;;;0.98;0.70;;;;;;;16.16;66.78;100835.47;5025448;28;20049;-68
2022/09/28 06:15:04;;;;;;;2.38;0.50;;;;;;;16.13;66.97;100834.59;5026864;28;20049;-68
2022/09/28 06:17:33;;;;;;;5.53;0.82;;;;;;;16.12;67.25;100824.97;5026934;28;20057;-70
2022/09/28 06:20:02;;;;;;;2.08;0.55;;;;;;;16.10;66.42;100826.75;5024552;28;20076;-70
2022/09/28 06:22:30;;;;;;;2.40;0.77;;;;;;;16.10;66.91;100834.56;5026376;28;20062;-70
2022/09/28 06:24:59;;;;;;;3.60;0.80;;;;;;;16.03;66.73;100840.56;5025081;28;20566;-70
2022/09/28 06:27:34;;;;;;;2.72;0.52;;;;;;;16.00;67.38;100845.78;5026451;28;20045;-70
2022/09/28 06:30:05;;;;;;;1.02;0.70;;;;;;;15.96;67.73;100848.34;5027739;28;20103;-69
2022/09/28 06:32:34;;;;;;;1.52;0.70;;;;;;;15.91;67.69;100845.69;5033850;28;20042;-69
2022/09/28 06:35:02;;;;;;;0.82;0.60;;;;;;;15.84;68.24;100849.97;5029868;28;20053;-70
2022/09/28 06:37:31;;;;;;;2.17;0.75;;;;;;;15.83;67.71;100852.59;5028276;28;20135;-69
2022/09/28 06:40:00;;;;;;;0.75;0.47;;;;;;;15.84;67.87;100849.09;5027338;28;20073;-69
2022/09/28 06:42:28;;;;;;;1.33;0.60;;;;;;;15.81;67.56;100843.88;5028097;28;21343;-69
2022/09/28 06:44:58;;;;;;;1.27;0.68;;;;;;;15.84;68.08;100842.16;5019607;28;20057;-69
2022/09/28 06:47:28;;;;;;;1.02;0.70;;;;;;;15.81;68.02;100844.75;5014052;28;20042;-69
2022/09/28 06:49:56;;;;;;;0.45;0.45;;;;;;;15.81;68.21;100849.09;5019467;28;20164;-69
2022/09/28 06:52:25;;;;;;;1.23;0.55;;;;;;;15.81;68.44;100849.09;5024615;28;20898;-69
2022/09/28 06:54:53;;;;;;;1.40;0.85;;;;;;;15.81;68.09;100857.78;5019208;28;20041;-69
2022/09/28 06:57:22;;;;;;;0.40;0.40;;;;;;;15.79;68.17;100858.63;5024602;28;20135;-69
2022/09/28 06:59:50;;;;;;;1.85;0.68;;;;;;;15.77;68.13;100868.19;5029065;28;20046;-70
2022/09/28 07:02:19;;;;;;;0.40;0.40;;;;;;;15.74;68.16;100866.41;5034767;28;20045;-69
2022/09/28 07:04:49;;;;;;;1.75;0.65;;;;;;;15.74;68.15;100858.59;5031941;28;20499;-69
2022/09/28 07:07:17;;;;;;;1.08;0.45;;;;;;;15.74;68.28;100865.56;5030413;28;20533;-70
2022/09/28 07:09:46;;;;;;;0.70;0.47;;;;;;;15.70;68.89;100865.50;5025039;28;20056;-70
2022/09/28 07:12:15;;;;;;;0.30;0.30;;;;;;;15.66;68.40;100874.09;5026216;28;20434;-70
2022/09/28 07:14:43;;;;;;;0.65;0.50;;;;;;;15.65;68.43;100877.59;5023265;28;20535;-70
2022/09/28 07:17:12;;;;;;;1.20;0.70;;;;;;;15.64;68.73;100872.34;5024355;28;20076;-70
2022/09/28 07:19:40;;;;;;;0.88;0.50;;;;;;;15.63;69.19;100881.03;5023863;28;20056;-70
2022/09/28 07:22:13;;;;;;;0.50;0.40;;;;;;;15.57;69.08;100871.41;5023928;28;20067;-70
2022/09/28 07:24:43;;;;;;;1.42;0.40;;;;;;;15.54;69.82;100867.91;5032806;28;20095;-70
2022/09/28 07:27:12;;;;;;;0.60;0.47;;;;;;;15.47;69.90;100865.22;5032259;28;20042;-70
2022/09/28 07:29:40;;;;;;;0.50;0.40;;;;;;;15.47;70.52;100861.75;5017485;28;20148;-70
2022/09/28 07:32:09;;;;;;;1.02;0.70;;;;;;;15.45;70.52;100869.53;5028937;28;20700;-69
2022/09/28 07:34:42;;;;;;;1.27;0.70;;;;;;;15.44;70.51;100856.50;5022697;28;20168;-70
2022/09/28 07:37:12;;;;;;;1.02;0.50;;;;;;;15.42;70.91;100856.47;5023821;28;20057;-69
2022/09/28 07:42:28;;;;;;;2.45;0.55;;;;;;;15.41;70.32;100846.88;5027846;28;20052;-70
2022/09/28 07:44:57;;;;;;;0.70;0.50;;;;;;;15.41;70.59;100854.72;5025782;28;20045;-70
2022/09/28 07:47:27;;;;;;;1.33;0.52;;;;;;;15.40;70.69;100852.09;5024692;28;20050;-70
2022/09/28 07:49:56;;;;;;;0.80;0.55;;;;;;;15.38;69.92;100846.00;5024329;28;20046;-70
2022/09/28 07:52:27;;;;;;;0.95;0.65;;;;;;;15.35;70.52;100846.84;5016560;28;20494;-69
2022/09/28 07:54:56;;;;;;;0.73;0.52;;;;;;;15.24;71.42;100854.53;5026315;28;20972;-68
2022/09/28 07:57:25;;;;;;;0.80;0.60;;;;;;;15.13;72.44;100842.22;5027723;28;20049;-69
2022/09/28 07:59:54;;;;;;;0.75;0.60;;;;;;;15.11;72.47;100843.94;5026642;28;21349;-69
2022/09/28 08:02:23;;;;;;;0.63;0.40;;;;;;;15.12;72.90;100836.16;5027405;28;20041;-69
2022/09/28 08:04:51;;;;;;;0.60;0.40;;;;;;;15.14;72.38;100833.53;5026208;28;20049;-69
2022/09/28 08:07:21;;;;;;;1.02;0.52;;;;;;;15.12;72.65;100835.25;5026295;28;21727;-69
2022/09/28 08:09:52;;;;;;;0.30;0.30;;;;;;;15.09;72.54;100823.06;5025177;28;20049;-69
2022/09/28 08:12:20;;;;;;;0.98;0.43;;;;;;;15.10;72.86;100811.78;5028506;28;20057;-70
2022/09/28 08:14:51;;;;;;;0.93;0.50;;;;;;;15.10;73.35;100814.41;5023358;28;20041;-69
2022/09/28 08:17:19;;;;;;;0.73;0.50;;;;;;;15.10;72.73;100818.75;5023267;28;20045;-70
2022/09/28 08:22:33;;;;;;;1.02;0.52;;;;;;;15.07;73.06;100817.84;5024792;28;20065;-69
2022/09/28 08:25:03;;;;;;;0.95;0.45;;;;;;;15.04;72.87;100806.50;5024003;28;20523;-69
2022/09/28 08:27:32;;;;;;;1.83;0.63;;;;;;;15.02;73.00;100803.00;5024385;28;20152;-69
2022/09/28 08:30:00;;;;;;;1.80;0.88;;;;;;;15.03;73.30;100804.75;5022009;28;20459;-69
2022/09/28 08:32:31;;;;;;;1.58;0.63;;;;;;;15.02;73.02;100803.88;5034176;28;20050;-69
2022/09/28 08:35:00;;;;;;;1.02;0.68;;;;;;;15.01;73.18;100796.91;5013652;28;20048;-69
2022/09/28 08:37:28;;;;;;;0.60;0.40;;;;;;;15.01;73.14;100809.09;5023305;28;20052;-69
2022/09/28 08:39:57;;;;;;;0.85;0.40;;;;;;;15.01;73.49;100806.47;5018272;28;20483;-70
2022/09/28 08:42:34;;;;;;;1.17;0.60;;;;;;;14.98;73.31;100804.72;5023219;28;20416;-70
2022/09/28 08:45:09;;;;;;;1.23;0.70;;;;;;;14.97;73.38;100809.88;5020324;28;20717;-70
2022/09/28 08:50:49;;;;;;;1.33;0.73;;;;;;;14.91;73.83;100804.59;5023881;28;20538;-69
2022/09/28 08:53:31;;;;;;;1.05;0.60;;;;;;;14.88;73.41;100810.66;5019599;28;20045;-70
2022/09/28 08:56:03;;;;;;;0.80;0.60;;;;;;;14.84;73.63;100814.97;5016900;28;20114;-70
2022/09/28 08:58:38;;;;;;;2.30;0.70;;;;;;;14.84;73.87;100814.06;5027739;28;20057;-70
2022/09/28 09:01:14;;;;;;;0.75;0.63;;;;;;;14.81;73.43;100814.91;5014663;28;20056;-70
2022/09/28 09:03:45;;;;;;;2.45;0.52;;;;;;;14.76;74.20;100805.28;5037753;28;20049;-69
2022/09/28 09:06:26;;;;;;;0.47;0.40;;;;;;;14.78;74.13;100821.81;5024705;28;20109;-71
2022/09/28 09:09:03;;;;;;;4.88;0.82;;;;;;;14.75;73.89;100814.84;5019250;28;20615;-71
2022/09/28 09:11:56;;;;;;;0.68;0.40;;;;;;;14.72;74.38;100808.69;5022085;28;20053;-70
2022/09/28 09:14:53;;;;;;;2.47;0.50;;;;;;;14.70;74.63;100810.41;5015314;28;20107;-70
2022/09/28 09:17:34;;;;;;;0.68;0.50;;;;;;;14.67;74.67;100821.66;5023254;28;20061;-70
2022/09/28 09:20:12;;;;;;;0.80;0.50;;;;;;;14.59;74.87;100818.06;5021220;28;20049;-69
2022/09/28 09:22:42;;;;;;;1.92;0.52;;;;;;;14.60;74.71;100825.03;5034973;28;20479;-69
2022/09/28 09:25:19;;;;;;;0.88;0.50;;;;;;;14.58;75.38;100837.16;5025644;28;20053;-69
2022/09/28 09:28:25;;;;;;;0.68;0.40;;;;;;;14.57;75.19;100830.22;5032212;28;20514;-69
2022/09/28 09:31:08;;;;;;;0.77;0.60;;;;;;;14.55;75.21;100842.34;4986521;28;20041;-70
2022/09/28 09:34:09;;;;;;;1.90;0.80;;;;;;;14.52;75.69;100842.22;5016034;28;20092;-69
2022/09/28 09:36:51;;;;;;;1.35;0.60;;;;;;;14.48;75.51;100841.31;5007615;28;20049;-69
2022/09/28 09:39:33;;;;;;;2.15;0.90;;;;;;;14.45;75.58;100842.16;5002095;28;20412;-70
2022/09/28 09:42:12;;;;;;;1.05;0.52;;;;;;;14.43;76.22;100849.06;5024355;28;20909;-69
2022/09/28 09:44:55;;;;;;;1.50;0.73;;;;;;;14.42;75.93;100844.69;5026120;28;20480;-69
2022/09/28 09:47:30;;;;;;;1.58;0.47;;;;;;;14.39;76.10;100836.84;5024917;28;20050;-68
2022/09/28 09:50:06;;;;;;;0.70;0.52;;;;;;;14.34;76.45;100843.72;5026122;28;20050;-69
2022/09/28 09:52:46;;;;;;;0.73;0.60;;;;;;;14.25;77.63;100834.03;5021949;28;20062;-69
2022/09/28 09:55:23;;;;;;;2.78;0.70;;;;;;;14.21;77.94;100832.22;5021702;28;20498;-69
2022/09/28 09:57:55;;;;;;;1.35;0.50;;;;;;;14.18;78.16;100829.59;5016074;28;20050;-69
2022/09/28 10:00:24;;;;;;;0.63;0.50;;;;;;;14.17;78.06;100832.16;5021761;28;20049;-68
2022/09/28 10:02:53;;;;;;;1.92;0.57;;;;;;;14.17;77.57;100837.38;5021574;28;20535;-68
2022/09/28 10:05:27;;;;;;;1.70;0.70;;;;;;;14.15;77.47;100841.66;5019720;28;20053;-69
2022/09/28 10:08:01;;;;;;;2.42;0.80;;;;;;;14.14;77.91;100850.34;5023154;28;20534;-69
2022/09/28 10:10:31;;;;;;;0.95;0.55;;;;;;;14.16;77.49;100839.09;5017467;28;20045;-70
2022/09/28 10:13:00;;;;;;;1.30;0.75;;;;;;;14.17;77.57;100826.97;5025696;28;20112;-69
2022/09/28 10:15:30;;;;;;;2.10;0.65;;;;;;;14.17;77.57;100835.63;5022638;28;20051;-69
2022/09/28 10:18:04;;;;;;;0.85;0.70;;;;;;;14.18;77.66;100832.19;5025816;28;20419;-70
2022/09/28 10:20:38;;;;;;;1.90;0.60;;;;;;;14.18;76.97;100836.53;5022389;28;20082;-69
2022/09/28 10:23:15;;;;;;;1.00;0.70;;;;;;;14.18;77.91;100844.34;5031465;28;20049;-69
2022/09/28 10:25:47;;;;;;;0.95;0.50;;;;;;;14.18;77.37;100844.34;5030228;28;20053;-69
2022/09/28 10:28:25;;;;;;;0.75;0.60;;;;;;;14.19;77.74;100846.06;5026191;28;20057;-69
2022/09/28 10:30:53;;;;;;;1.45;0.80;;;;;;;14.17;77.74;100855.59;5026480;28;20492;-70
2022/09/28 10:33:32;;;;;;;1.05;0.60;;;;;;;14.16;77.90;100862.53;5027028;28;20045;-69
2022/09/28 10:36:05;;;;;;;1.38;0.77;;;;;;;14.15;77.82;100865.09;5032289;28;20530;-69
2022/09/28 10:38:34;;;;;;;1.42;0.70;;;;;;;14.10;78.38;100867.59;5029384;28;20049;-69
2022/09/28 10:41:12;;;;;;;1.60;1.00;;;;;;;14.00;78.98;100887.41;5030585;28;20055;-69
2022/09/28 10:44:04;;;;;;;1.50;0.60;;;;;;;13.97;79.52;100882.16;5028799;28;20542;-69
2022/09/28 10:46:35;;;;;;;0.75;0.63;;;;;;;13.99;78.98;100889.97;5033144;28;20049;-70
2022/09/28 10:49:04;;;;;;;1.17;0.70;;;;;;;14.00;78.69;100877.00;5029696;28;20038;-70
2022/09/28 10:51:45;;;;;;;0.95;0.57;;;;;;;14.00;78.01;100873.53;5021423;28;20053;-69
2022/09/28 10:54:17;;;;;;;0.73;0.60;;;;;;;14.00;78.19;100866.59;5030348;28;20064;-69
2022/09/28 10:56:46;;;;;;;0.75;0.50;;;;;;;14.00;78.32;100853.56;5023361;28;20416;-70
2022/09/28 10:59:39;;;;;;;3.40;0.80;;;;;;;14.00;78.19;100861.38;5027840;28;20056;-69
2022/09/28 11:02:16;;;;;;;;;;;;;;;13.97;78.69;100869.16;5022962;28;20160;-70
2022/09/28 11:04:51;;;;;;;4.32;0.80;;;;;;;13.98;79.04;100873.47;5025644;28;19921;-69
2022/09/28 11:07:24;;;;;;;1.30;0.70;;;;;;;13.98;79.22;100865.69;5024657;28;20075;-70
2022/09/28 11:09:55;;;;;;;1.95;0.70;;;;;;;13.99;78.74;100851.81;5023168;28;20141;-69
2022/09/28 11:12:26;;;;;;;2.95;0.73;;;;;;;13.99;79.18;100870.03;5011221;28;20157;-69
2022/09/28 11:15:00;;;;;;;0.90;0.70;;;;;;;13.99;78.98;100874.34;5022666;28;20526;-69
2022/09/28 11:17:32;;;;;;;0.80;0.63;;;;;;;13.98;79.80;100868.28;5021141;28;20045;-70
2022/09/28 11:20:02;;;;;;;2.40;1.02;;;;;;;13.97;79.53;100863.94;5027661;28;20049;-71
2022/09/28 11:22:43;;;;;;;1.23;0.75;;;;;;;13.97;79.94;100866.53;5021224;28;20046;-70
2022/09/28 11:25:22;;;;;;;2.58;0.80;;;;;;;13.94;79.86;100853.47;5022628;28;20045;-70
2022/09/28 11:28:00;;;;;;;3.47;0.93;;;;;;;13.94;79.83;100871.66;5022009;28;20499;-71
2022/09/28 11:30:31;;;;;;;2.10;0.75;;;;;;;13.91;79.52;100882.03;5019225;28;20041;-72
2022/09/28 11:33:06;;;;;;;0.75;0.60;;;;;;;13.90;79.63;100880.25;5023680;28;20052;-71
2022/09/28 11:35:47;;;;;;;2.47;0.95;;;;;;;13.91;80.54;100888.97;5018291;28;20602;-70
2022/09/28 11:38:40;;;;;;;1.20;0.70;;;;;;;13.92;80.12;100891.56;5021897;28;20077;-70
2022/09/28 11:41:15;;;;;;;;;;;;;;;13.93;80.55;100877.75;5024289;28;20173;-69
2022/09/28 11:44:02;;;;;;;0.82;0.77;;;;;;;13.93;80.99;100875.13;5027988;28;19967;-69
2022/09/28 11:46:41;;;;;;;1.23;0.77;;;;;;;13.94;81.23;100863.88;5025362;28;20423;-69
2022/09/28 11:49:27;;;;;;;0.77;0.60;;;;;;;13.95;80.69;100870.84;5025942;28;20051;-70
2022/09/28 11:52:02;;;;;;;1.70;1.10;;;;;;;13.95;81.23;100857.84;5028595;28;20417;-69
2022/09/28 11:54:41;;;;;;;2.05;1.23;;;;;;;13.96;81.16;100871.72;5029219;28;20049;-69
2022/09/28 11:57:16;;;;;;;1.92;0.98;;;;;;;13.93;81.29;100871.66;5026174;28;20388;-70
2022/09/28 11:59:53;;;;;;;2.97;1.10;;;;;;;13.93;81.42;100871.66;5022148;28;20053;-70
2022/09/28 12:02:26;;;;;;;5.72;1.23;;;;;;;13.93;81.13;100841.31;5023158;28;20060;-71
2022/09/28 12:04:58;;;;;;;2.97;0.85;;;;;;;13.92;81.80;100849.97;5018247;28;20491;-70